If you wish to contribute or participate in the discussions about articles you are invited to join SKYbrary as a registered user

 Actions

Hemaven Tärnaby Airport

From SKYbrary Wiki

ESUT
Airport
ICAO: ESUT – IATA: HMV
Summary
Name Hemaven Tärnaby Airport
Region Europe
Territory Sweden SE.gif
Location Hemaven, Storuman
Serving Hemaven
Elevation 458.114 m <br />1,503 ft <br />1,503 ft458.114 m <br />
Coordinates 65° 48' 22.00" N, 15° 4' 58.00" E
Runways
Designator Length Width Surface ROPS
15/33 1601 m5,252.625 ft <br /> 30 m98.425 ft <br /> ASP /


METAR
Observation ESUT 130950Z AUTO 27014KT 230V300 9999 BKN025/// OVC032/// 08/03 Q1006
Station HEMAVAN
Date/Time 13 June 2021 09:50:00
Wind direction 270°
Wind speed 14 kts
Lowest cloud amount broken clouds
Temperature 8°C
Dew point 3°C
Humidity 70%
QNH 1006 hPa
Weather condition n/a

Airport in Hemavan, Sweden.

Climatology

Subpolar climate (Köppen climate classification Dfc

Maps

Terrain

Loading map...

Airport Layout

Loading map...


Accidents & Serious Incidents at or in vicinity of ESUT

None on SKYbrary